sensor_id;sensor_type;location;lat;lon;timestamp;P1;durP1;ratioP1;P2;durP2;ratioP2
12519;SDS011;6325;49.540;8.364;2023-08-30T00:01:05;1.90;;;1.80;;
12519;SDS011;6325;49.540;8.364;2023-08-30T00:03:33;1.80;;;1.70;;
12519;SDS011;6325;49.540;8.364;2023-08-30T00:06:03;1.90;;;1.80;;
12519;SDS011;6325;49.540;8.364;2023-08-30T00:08:30;1.90;;;1.80;;
12519;SDS011;6325;49.540;8.364;2023-08-30T00:10:57;1.92;;;1.83;;
12519;SDS011;6325;49.540;8.364;2023-08-30T00:13:24;1.70;;;1.70;;
12519;SDS011;6325;49.540;8.364;2023-08-30T00:15:53;2.00;;;1.90;;
12519;SDS011;6325;49.540;8.364;2023-08-30T00:18:20;1.90;;;1.80;;
12519;SDS011;6325;49.540;8.364;2023-08-30T00:20:48;1.75;;;1.67;;
12519;SDS011;6325;49.540;8.364;2023-08-30T00:23:15;1.83;;;1.73;;
12519;SDS011;6325;49.540;8.364;2023-08-30T00:25:43;1.98;;;1.88;;
12519;SDS011;6325;49.540;8.364;2023-08-30T00:28:10;1.67;;;1.58;;
12519;SDS011;6325;49.540;8.364;2023-08-30T00:30:37;1.70;;;1.70;;
12519;SDS011;6325;49.540;8.364;2023-08-30T00:33:06;1.67;;;1.67;;
12519;SDS011;6325;49.540;8.364;2023-08-30T00:35:33;2.00;;;1.90;;
12519;SDS011;6325;49.540;8.364;2023-08-30T00:38:00;1.77;;;1.67;;
12519;SDS011;6325;49.540;8.364;2023-08-30T00:40:28;1.70;;;1.70;;
12519;SDS011;6325;49.540;8.364;2023-08-30T00:42:56;1.90;;;1.80;;
12519;SDS011;6325;49.540;8.364;2023-08-30T00:45:23;1.70;;;1.60;;
12519;SDS011;6325;49.540;8.364;2023-08-30T00:47:51;1.67;;;1.67;;
12519;SDS011;6325;49.540;8.364;2023-08-30T00:50:19;1.80;;;1.70;;
12519;SDS011;6325;49.540;8.364;2023-08-30T00:52:46;1.93;;;1.90;;
12519;SDS011;6325;49.540;8.364;2023-08-30T00:55:14;1.73;;;1.73;;
12519;SDS011;6325;49.540;8.364;2023-08-30T00:57:41;1.90;;;1.80;;
12519;SDS011;6325;49.540;8.364;2023-08-30T01:00:08;1.95;;;1.85;;
12519;SDS011;6325;49.540;8.364;2023-08-30T01:02:36;2.10;;;2.00;;
12519;SDS011;6325;49.540;8.364;2023-08-30T01:05:04;2.10;;;2.00;;
12519;SDS011;6325;49.540;8.364;2023-08-30T01:07:33;2.08;;;1.98;;
12519;SDS011;6325;49.540;8.364;2023-08-30T01:10:00;2.10;;;2.00;;
12519;SDS011;6325;49.540;8.364;2023-08-30T01:12:29;1.90;;;1.80;;
12519;SDS011;6325;49.540;8.364;2023-08-30T01:14:58;2.17;;;1.97;;
12519;SDS011;6325;49.540;8.364;2023-08-30T01:17:25;1.80;;;1.70;;
12519;SDS011;6325;49.540;8.364;2023-08-30T01:19:56;1.67;;;1.60;;
12519;SDS011;6325;49.540;8.364;2023-08-30T01:22:29;1.85;;;1.75;;
12519;SDS011;6325;49.540;8.364;2023-08-30T01:25:00;1.60;;;1.60;;
12519;SDS011;6325;49.540;8.364;2023-08-30T01:27:30;1.73;;;1.63;;
12519;SDS011;6325;49.540;8.364;2023-08-30T01:30:00;1.75;;;1.67;;
12519;SDS011;6325;49.540;8.364;2023-08-30T01:32:28;1.95;;;1.85;;
12519;SDS011;6325;49.540;8.364;2023-08-30T01:34:56;2.83;;;2.72;;
12519;SDS011;6325;49.540;8.364;2023-08-30T01:37:23;2.30;;;2.20;;
12519;SDS011;6325;49.540;8.364;2023-08-30T01:39:51;2.05;;;2.00;;
12519;SDS011;6325;49.540;8.364;2023-08-30T01:42:19;2.10;;;2.00;;
12519;SDS011;6325;49.540;8.364;2023-08-30T01:44:48;1.95;;;1.85;;
12519;SDS011;6325;49.540;8.364;2023-08-30T01:47:16;1.83;;;1.73;;
12519;SDS011;6325;49.540;8.364;2023-08-30T01:49:44;1.70;;;1.60;;
12519;SDS011;6325;49.540;8.364;2023-08-30T01:52:11;1.60;;;1.60;;
12519;SDS011;6325;49.540;8.364;2023-08-30T01:54:39;1.73;;;1.63;;
12519;SDS011;6325;49.540;8.364;2023-08-30T01:57:07;1.70;;;1.70;;
12519;SDS011;6325;49.540;8.364;2023-08-30T01:59:34;1.52;;;1.50;;
12519;SDS011;6325;49.540;8.364;2023-08-30T02:02:03;1.83;;;1.73;;
12519;SDS011;6325;49.540;8.364;2023-08-30T02:04:30;1.80;;;1.70;;
12519;SDS011;6325;49.540;8.364;2023-08-30T02:07:00;1.80;;;1.70;;
12519;SDS011;6325;49.540;8.364;2023-08-30T02:09:29;2.00;;;1.90;;
12519;SDS011;6325;49.540;8.364;2023-08-30T02:12:00;1.63;;;1.63;;
12519;SDS011;6325;49.540;8.364;2023-08-30T02:14:28;1.63;;;1.63;;
12519;SDS011;6325;49.540;8.364;2023-08-30T02:16:56;1.80;;;1.70;;
12519;SDS011;6325;49.540;8.364;2023-08-30T02:19:25;1.73;;;1.70;;
12519;SDS011;6325;49.540;8.364;2023-08-30T02:21:52;1.95;;;1.85;;
12519;SDS011;6325;49.540;8.364;2023-08-30T02:24:20;1.70;;;1.60;;
12519;SDS011;6325;49.540;8.364;2023-08-30T02:26:47;1.92;;;1.83;;
12519;SDS011;6325;49.540;8.364;2023-08-30T02:29:14;2.00;;;1.90;;
12519;SDS011;6325;49.540;8.364;2023-08-30T02:31:41;1.95;;;1.85;;
12519;SDS011;6325;49.540;8.364;2023-08-30T02:34:08;1.85;;;1.80;;
12519;SDS011;6325;49.540;8.364;2023-08-30T02:36:37;1.88;;;1.77;;
12519;SDS011;6325;49.540;8.364;2023-08-30T02:39:04;1.55;;;1.55;;
12519;SDS011;6325;49.540;8.364;2023-08-30T02:41:31;1.70;;;1.70;;
12519;SDS011;6325;49.540;8.364;2023-08-30T02:43:59;1.87;;;1.80;;
12519;SDS011;6325;49.540;8.364;2023-08-30T02:46:26;1.90;;;1.80;;
12519;SDS011;6325;49.540;8.364;2023-08-30T02:48:53;1.80;;;1.80;;
12519;SDS011;6325;49.540;8.364;2023-08-30T02:51:21;2.10;;;2.00;;
12519;SDS011;6325;49.540;8.364;2023-08-30T02:53:49;2.10;;;2.00;;
12519;SDS011;6325;49.540;8.364;2023-08-30T02:56:16;2.00;;;1.90;;
12519;SDS011;6325;49.540;8.364;2023-08-30T02:58:44;2.08;;;1.98;;
12519;SDS011;6325;49.540;8.364;2023-08-30T03:01:11;2.20;;;2.10;;
12519;SDS011;6325;49.540;8.364;2023-08-30T03:03:38;2.13;;;2.03;;
12519;SDS011;6325;49.540;8.364;2023-08-30T03:06:05;2.10;;;2.00;;
12519;SDS011;6325;49.540;8.364;2023-08-30T03:08:33;2.03;;;2.03;;
12519;SDS011;6325;49.540;8.364;2023-08-30T03:11:09;1.90;;;1.90;;
12519;SDS011;6325;49.540;8.364;2023-08-30T03:13:36;2.05;;;1.95;;
12519;SDS011;6325;49.540;8.364;2023-08-30T03:16:09;2.20;;;2.10;;
12519;SDS011;6325;49.540;8.364;2023-08-30T03:18:37;2.00;;;1.90;;
12519;SDS011;6325;49.540;8.364;2023-08-30T03:21:04;2.00;;;1.90;;
12519;SDS011;6325;49.540;8.364;2023-08-30T03:23:31;2.10;;;2.00;;
12519;SDS011;6325;49.540;8.364;2023-08-30T03:26:06;2.30;;;2.20;;
12519;SDS011;6325;49.540;8.364;2023-08-30T03:28:35;2.30;;;2.20;;
12519;SDS011;6325;49.540;8.364;2023-08-30T03:31:10;2.30;;;2.20;;
12519;SDS011;6325;49.540;8.364;2023-08-30T03:33:37;2.40;;;2.30;;
12519;SDS011;6325;49.540;8.364;2023-08-30T03:36:06;2.47;;;2.30;;
12519;SDS011;6325;49.540;8.364;2023-08-30T03:38:34;2.45;;;2.35;;
12519;SDS011;6325;49.540;8.364;2023-08-30T03:41:02;2.50;;;2.40;;
12519;SDS011;6325;49.540;8.364;2023-08-30T03:43:29;2.45;;;2.35;;
12519;SDS011;6325;49.540;8.364;2023-08-30T03:45:58;2.40;;;2.30;;
12519;SDS011;6325;49.540;8.364;2023-08-30T03:48:26;2.22;;;2.13;;
12519;SDS011;6325;49.540;8.364;2023-08-30T03:50:53;2.70;;;2.60;;
12519;SDS011;6325;49.540;8.364;2023-08-30T03:53:21;2.47;;;2.38;;
12519;SDS011;6325;49.540;8.364;2023-08-30T03:55:48;2.72;;;2.63;;
12519;SDS011;6325;49.540;8.364;2023-08-30T03:58:15;3.10;;;3.00;;
12519;SDS011;6325;49.540;8.364;2023-08-30T04:00:42;2.90;;;2.80;;
12519;SDS011;6325;49.540;8.364;2023-08-30T04:03:12;3.15;;;3.05;;
12519;SDS011;6325;49.540;8.364;2023-08-30T04:05:39;2.90;;;2.80;;
12519;SDS011;6325;49.540;8.364;2023-08-30T04:08:07;2.90;;;2.80;;
12519;SDS011;6325;49.540;8.364;2023-08-30T04:10:34;3.17;;;3.08;;
12519;SDS011;6325;49.540;8.364;2023-08-30T04:13:01;2.90;;;2.80;;
12519;SDS011;6325;49.540;8.364;2023-08-30T04:15:28;3.22;;;3.03;;
12519;SDS011;6325;49.540;8.364;2023-08-30T04:17:56;3.20;;;3.10;;
12519;SDS011;6325;49.540;8.364;2023-08-30T04:20:24;3.20;;;3.10;;
12519;SDS011;6325;49.540;8.364;2023-08-30T04:22:52;3.50;;;3.30;;
12519;SDS011;6325;49.540;8.364;2023-08-30T04:25:21;3.50;;;3.30;;
12519;SDS011;6325;49.540;8.364;2023-08-30T04:27:48;3.72;;;3.53;;
12519;SDS011;6325;49.540;8.364;2023-08-30T04:30:15;3.72;;;3.53;;
12519;SDS011;6325;49.540;8.364;2023-08-30T04:32:44;3.90;;;3.60;;
12519;SDS011;6325;49.540;8.364;2023-08-30T04:35:11;3.67;;;3.53;;
12519;SDS011;6325;49.540;8.364;2023-08-30T04:37:39;3.90;;;3.70;;
12519;SDS011;6325;49.540;8.364;2023-08-30T04:40:08;3.60;;;3.40;;
12519;SDS011;6325;49.540;8.364;2023-08-30T04:42:35;3.60;;;3.40;;
12519;SDS011;6325;49.540;8.364;2023-08-30T04:45:02;3.65;;;3.45;;
12519;SDS011;6325;49.540;8.364;2023-08-30T04:47:30;3.60;;;3.40;;
12519;SDS011;6325;49.540;8.364;2023-08-30T04:49:57;3.37;;;3.23;;
12519;SDS011;6325;49.540;8.364;2023-08-30T04:52:24;3.70;;;3.50;;
12519;SDS011;6325;49.540;8.364;2023-08-30T04:54:53;3.60;;;3.40;;
12519;SDS011;6325;49.540;8.364;2023-08-30T04:57:20;3.67;;;3.37;;
12519;SDS011;6325;49.540;8.364;2023-08-30T04:59:47;3.17;;;3.00;;
12519;SDS011;6325;49.540;8.364;2023-08-30T05:02:14;3.80;;;3.60;;
12519;SDS011;6325;49.540;8.364;2023-08-30T05:04:42;3.70;;;3.50;;
12519;SDS011;6325;49.540;8.364;2023-08-30T05:07:09;3.75;;;3.53;;
12519;SDS011;6325;49.540;8.364;2023-08-30T05:09:36;3.50;;;3.40;;
12519;SDS011;6325;49.540;8.364;2023-08-30T05:12:07;4.03;;;3.83;;
12519;SDS011;6325;49.540;8.364;2023-08-30T05:14:34;3.83;;;3.63;;
12519;SDS011;6325;49.540;8.364;2023-08-30T05:17:01;4.10;;;3.90;;
12519;SDS011;6325;49.540;8.364;2023-08-30T05:19:28;4.00;;;3.80;;
12519;SDS011;6325;49.540;8.364;2023-08-30T05:21:56;3.92;;;3.72;;
12519;SDS011;6325;49.540;8.364;2023-08-30T05:24:23;4.40;;;4.17;;
12519;SDS011;6325;49.540;8.364;2023-08-30T05:26:51;4.10;;;3.85;;
12519;SDS011;6325;49.540;8.364;2023-08-30T05:29:20;4.38;;;4.18;;
12519;SDS011;6325;49.540;8.364;2023-08-30T05:31:47;4.00;;;3.80;;
12519;SDS011;6325;49.540;8.364;2023-08-30T05:34:14;4.32;;;4.13;;
12519;SDS011;6325;49.540;8.364;2023-08-30T05:36:41;4.10;;;3.90;;
12519;SDS011;6325;49.540;8.364;2023-08-30T05:39:08;4.30;;;4.00;;
12519;SDS011;6325;49.540;8.364;2023-08-30T05:41:35;4.00;;;3.80;;
12519;SDS011;6325;49.540;8.364;2023-08-30T05:44:03;3.97;;;3.78;;
12519;SDS011;6325;49.540;8.364;2023-08-30T05:46:32;4.10;;;3.90;;
12519;SDS011;6325;49.540;8.364;2023-08-30T05:48:59;4.07;;;3.88;;
12519;SDS011;6325;49.540;8.364;2023-08-30T05:51:28;4.00;;;3.80;;
12519;SDS011;6325;49.540;8.364;2023-08-30T05:53:55;4.30;;;4.10;;
12519;SDS011;6325;49.540;8.364;2023-08-30T05:56:22;4.03;;;3.72;;
12519;SDS011;6325;49.540;8.364;2023-08-30T05:58:49;4.20;;;4.00;;
12519;SDS011;6325;49.540;8.364;2023-08-30T06:01:17;3.83;;;3.63;;
12519;SDS011;6325;49.540;8.364;2023-08-30T06:03:46;4.20;;;4.00;;
12519;SDS011;6325;49.540;8.364;2023-08-30T06:06:13;4.03;;;3.83;;
12519;SDS011;6325;49.540;8.364;2023-08-30T06:08:40;4.15;;;3.95;;
12519;SDS011;6325;49.540;8.364;2023-08-30T06:11:08;4.25;;;4.05;;
12519;SDS011;6325;49.540;8.364;2023-08-30T06:13:35;4.47;;;4.28;;
12519;SDS011;6325;49.540;8.364;2023-08-30T06:16:02;4.63;;;4.38;;
12519;SDS011;6325;49.540;8.364;2023-08-30T06:18:30;4.40;;;4.20;;
12519;SDS011;6325;49.540;8.364;2023-08-30T06:20:59;4.50;;;4.30;;
12519;SDS011;6325;49.540;8.364;2023-08-30T06:23:27;4.40;;;4.13;;
12519;SDS011;6325;49.540;8.364;2023-08-30T06:25:54;4.68;;;4.47;;
12519;SDS011;6325;49.540;8.364;2023-08-30T06:28:21;4.43;;;4.22;;
12519;SDS011;6325;49.540;8.364;2023-08-30T06:30:49;4.35;;;4.13;;
12519;SDS011;6325;49.540;8.364;2023-08-30T06:33:16;4.63;;;4.43;;
12519;SDS011;6325;49.540;8.364;2023-08-30T06:35:43;4.55;;;4.35;;
12519;SDS011;6325;49.540;8.364;2023-08-30T06:38:12;4.80;;;4.50;;
12519;SDS011;6325;49.540;8.364;2023-08-30T06:40:43;4.30;;;4.10;;
12519;SDS011;6325;49.540;8.364;2023-08-30T06:43:11;4.93;;;4.63;;
12519;SDS011;6325;49.540;8.364;2023-08-30T06:45:38;5.05;;;4.75;;
12519;SDS011;6325;49.540;8.364;2023-08-30T06:48:06;4.40;;;4.20;;
12519;SDS011;6325;49.540;8.364;2023-08-30T06:50:33;4.78;;;4.47;;
12519;SDS011;6325;49.540;8.364;2023-08-30T06:53:00;4.82;;;4.53;;
12519;SDS011;6325;49.540;8.364;2023-08-30T06:55:29;4.30;;;4.10;;
12519;SDS011;6325;49.540;8.364;2023-08-30T06:57:56;4.85;;;4.60;;
12519;SDS011;6325;49.540;8.364;2023-08-30T07:00:24;4.90;;;4.70;;
12519;SDS011;6325;49.540;8.364;2023-08-30T07:02:51;4.90;;;4.60;;
12519;SDS011;6325;49.540;8.364;2023-08-30T07:05:18;5.30;;;5.00;;
12519;SDS011;6325;49.540;8.364;2023-08-30T07:07:45;4.93;;;4.63;;
12519;SDS011;6325;49.540;8.364;2023-08-30T07:10:12;4.70;;;4.40;;
12519;SDS011;6325;49.540;8.364;2023-08-30T07:12:41;4.70;;;4.50;;
12519;SDS011;6325;49.540;8.364;2023-08-30T07:15:08;5.13;;;4.82;;
12519;SDS011;6325;49.540;8.364;2023-08-30T07:17:35;5.50;;;5.20;;
12519;SDS011;6325;49.540;8.364;2023-08-30T07:20:02;4.80;;;4.60;;
12519;SDS011;6325;49.540;8.364;2023-08-30T07:22:33;5.10;;;4.80;;
12519;SDS011;6325;49.540;8.364;2023-08-30T07:25:00;5.20;;;4.90;;
12519;SDS011;6325;49.540;8.364;2023-08-30T07:27:28;4.80;;;4.60;;
12519;SDS011;6325;49.540;8.364;2023-08-30T07:29:57;5.25;;;4.95;;
12519;SDS011;6325;49.540;8.364;2023-08-30T07:32:24;4.97;;;4.67;;
12519;SDS011;6325;49.540;8.364;2023-08-30T07:34:52;4.83;;;4.63;;
12519;SDS011;6325;49.540;8.364;2023-08-30T07:37:20;4.97;;;4.68;;
12519;SDS011;6325;49.540;8.364;2023-08-30T07:39:47;5.00;;;4.70;;
12519;SDS011;6325;49.540;8.364;2023-08-30T07:42:14;4.72;;;4.43;;
12519;SDS011;6325;49.540;8.364;2023-08-30T07:44:42;4.82;;;4.55;;
12519;SDS011;6325;49.540;8.364;2023-08-30T07:47:10;4.63;;;4.43;;
12519;SDS011;6325;49.540;8.364;2023-08-30T07:49:37;4.73;;;4.43;;
12519;SDS011;6325;49.540;8.364;2023-08-30T07:52:04;4.63;;;4.43;;
12519;SDS011;6325;49.540;8.364;2023-08-30T07:54:33;4.45;;;4.25;;
12519;SDS011;6325;49.540;8.364;2023-08-30T07:57:00;4.50;;;4.30;;
12519;SDS011;6325;49.540;8.364;2023-08-30T07:59:28;4.63;;;4.32;;
12519;SDS011;6325;49.540;8.364;2023-08-30T08:01:56;4.72;;;4.43;;
12519;SDS011;6325;49.540;8.364;2023-08-30T08:04:24;3.92;;;3.72;;
12519;SDS011;6325;49.540;8.364;2023-08-30T08:06:51;4.78;;;4.47;;
12519;SDS011;6325;49.540;8.364;2023-08-30T08:09:18;4.85;;;4.55;;
12519;SDS011;6325;49.540;8.364;2023-08-30T08:11:46;4.80;;;4.50;;
12519;SDS011;6325;49.540;8.364;2023-08-30T08:14:14;4.60;;;4.40;;
12519;SDS011;6325;49.540;8.364;2023-08-30T08:16:41;4.70;;;4.40;;
12519;SDS011;6325;49.540;8.364;2023-08-30T08:19:08;4.47;;;4.28;;
12519;SDS011;6325;49.540;8.364;2023-08-30T08:21:38;4.53;;;4.23;;
12519;SDS011;6325;49.540;8.364;2023-08-30T08:24:06;4.80;;;4.40;;
12519;SDS011;6325;49.540;8.364;2023-08-30T08:26:33;4.60;;;4.30;;
12519;SDS011;6325;49.540;8.364;2023-08-30T08:29:00;4.60;;;4.30;;
12519;SDS011;6325;49.540;8.364;2023-08-30T08:31:28;4.40;;;4.20;;
12519;SDS011;6325;49.540;8.364;2023-08-30T08:34:06;4.85;;;4.55;;
12519;SDS011;6325;49.540;8.364;2023-08-30T08:36:33;4.43;;;4.20;;
12519;SDS011;6325;49.540;8.364;2023-08-30T08:39:02;4.73;;;4.47;;
12519;SDS011;6325;49.540;8.364;2023-08-30T08:41:32;4.38;;;4.18;;
12519;SDS011;6325;49.540;8.364;2023-08-30T08:44:01;4.17;;;3.90;;
12519;SDS011;6325;49.540;8.364;2023-08-30T08:46:30;3.90;;;3.70;;
12519;SDS011;6325;49.540;8.364;2023-08-30T08:48:58;4.25;;;4.03;;
12519;SDS011;6325;49.540;8.364;2023-08-30T08:51:28;4.10;;;3.80;;
12519;SDS011;6325;49.540;8.364;2023-08-30T08:53:57;3.65;;;3.45;;
12519;SDS011;6325;49.540;8.364;2023-08-30T08:56:30;3.30;;;3.10;;
12519;SDS011;6325;49.540;8.364;2023-08-30T08:58:57;3.58;;;3.33;;
12519;SDS011;6325;49.540;8.364;2023-08-30T09:01:25;3.38;;;3.17;;
12519;SDS011;6325;49.540;8.364;2023-08-30T09:03:52;3.90;;;3.60;;
12519;SDS011;6325;49.540;8.364;2023-08-30T09:06:19;3.77;;;3.57;;
12519;SDS011;6325;49.540;8.364;2023-08-30T09:08:47;3.88;;;3.67;;
12519;SDS011;6325;49.540;8.364;2023-08-30T09:11:14;3.40;;;3.22;;
12519;SDS011;6325;49.540;8.364;2023-08-30T09:13:43;3.95;;;3.70;;
12519;SDS011;6325;49.540;8.364;2023-08-30T09:16:13;3.70;;;3.42;;
12519;SDS011;6325;49.540;8.364;2023-08-30T09:18:41;3.55;;;3.35;;
12519;SDS011;6325;49.540;8.364;2023-08-30T09:21:08;3.35;;;3.15;;
12519;SDS011;6325;49.540;8.364;2023-08-30T09:23:36;3.15;;;2.95;;
12519;SDS011;6325;49.540;8.364;2023-08-30T09:26:03;3.40;;;3.20;;
12519;SDS011;6325;49.540;8.364;2023-08-30T09:28:30;3.60;;;3.40;;
12519;SDS011;6325;49.540;8.364;2023-08-30T09:30:59;3.20;;;3.00;;
12519;SDS011;6325;49.540;8.364;2023-08-30T09:33:30;3.00;;;2.90;;
12519;SDS011;6325;49.540;8.364;2023-08-30T09:35:58;2.83;;;2.70;;
12519;SDS011;6325;49.540;8.364;2023-08-30T09:38:25;2.97;;;2.83;;
12519;SDS011;6325;49.540;8.364;2023-08-30T09:40:52;3.10;;;3.00;;
12519;SDS011;6325;49.540;8.364;2023-08-30T09:43:29;3.13;;;2.92;;
12519;SDS011;6325;49.540;8.364;2023-08-30T09:45:57;3.13;;;2.92;;
12519;SDS011;6325;49.540;8.364;2023-08-30T09:48:28;3.15;;;2.95;;
12519;SDS011;6325;49.540;8.364;2023-08-30T09:50:56;3.38;;;3.20;;
12519;SDS011;6325;49.540;8.364;2023-08-30T09:53:25;3.72;;;3.33;;
12519;SDS011;6325;49.540;8.364;2023-08-30T09:55:53;3.22;;;3.03;;
12519;SDS011;6325;49.540;8.364;2023-08-30T09:58:20;3.40;;;3.20;;
12519;SDS011;6325;49.540;8.364;2023-08-30T10:00:48;3.20;;;3.10;;
12519;SDS011;6325;49.540;8.364;2023-08-30T10:03:15;3.53;;;3.33;;
12519;SDS011;6325;49.540;8.364;2023-08-30T10:05:44;2.70;;;2.60;;
12519;SDS011;6325;49.540;8.364;2023-08-30T10:08:11;3.15;;;2.95;;
12519;SDS011;6325;49.540;8.364;2023-08-30T10:10:39;2.40;;;2.30;;
12519;SDS011;6325;49.540;8.364;2023-08-30T10:13:07;2.40;;;2.30;;
12519;SDS011;6325;49.540;8.364;2023-08-30T10:15:35;2.80;;;2.60;;
12519;SDS011;6325;49.540;8.364;2023-08-30T10:18:04;2.75;;;2.55;;
12519;SDS011;6325;49.540;8.364;2023-08-30T10:20:33;2.53;;;2.42;;
12519;SDS011;6325;49.540;8.364;2023-08-30T10:23:02;2.30;;;2.20;;
12519;SDS011;6325;49.540;8.364;2023-08-30T10:25:29;2.58;;;2.47;;
12519;SDS011;6325;49.540;8.364;2023-08-30T10:27:57;2.53;;;2.43;;
12519;SDS011;6325;49.540;8.364;2023-08-30T10:30:24;2.40;;;2.30;;
12519;SDS011;6325;49.540;8.364;2023-08-30T10:32:52;2.50;;;2.40;;
12519;SDS011;6325;49.540;8.364;2023-08-30T10:35:19;2.50;;;2.40;;
12519;SDS011;6325;49.540;8.364;2023-08-30T10:37:56;1.98;;;1.88;;
12519;SDS011;6325;49.540;8.364;2023-08-30T10:40:24;2.88;;;2.67;;
12519;SDS011;6325;49.540;8.364;2023-08-30T10:42:58;1.90;;;1.80;;
12519;SDS011;6325;49.540;8.364;2023-08-30T10:45:26;1.90;;;1.80;;
12519;SDS011;6325;49.540;8.364;2023-08-30T10:47:54;1.90;;;1.80;;
12519;SDS011;6325;49.540;8.364;2023-08-30T10:50:27;2.90;;;2.70;;
12519;SDS011;6325;49.540;8.364;2023-08-30T10:52:54;2.70;;;2.50;;
12519;SDS011;6325;49.540;8.364;2023-08-30T10:55:22;2.28;;;2.10;;
12519;SDS011;6325;49.540;8.364;2023-08-30T10:57:59;2.05;;;1.95;;
12519;SDS011;6325;49.540;8.364;2023-08-30T11:00:27;2.00;;;1.90;;
12519;SDS011;6325;49.540;8.364;2023-08-30T11:02:55;1.80;;;1.75;;
12519;SDS011;6325;49.540;8.364;2023-08-30T11:05:23;1.90;;;1.80;;
12519;SDS011;6325;49.540;8.364;2023-08-30T11:07:50;3.95;;;3.58;;
12519;SDS011;6325;49.540;8.364;2023-08-30T11:10:18;1.90;;;1.80;;
12519;SDS011;6325;49.540;8.364;2023-08-30T11:12:45;2.00;;;1.90;;
12519;SDS011;6325;49.540;8.364;2023-08-30T11:15:15;2.35;;;2.13;;
12519;SDS011;6325;49.540;8.364;2023-08-30T11:17:45;2.60;;;2.40;;
12519;SDS011;6325;49.540;8.364;2023-08-30T11:20:12;2.70;;;2.60;;
12519;SDS011;6325;49.540;8.364;2023-08-30T11:22:42;2.40;;;2.30;;
12519;SDS011;6325;49.540;8.364;2023-08-30T11:25:10;2.00;;;1.90;;
12519;SDS011;6325;49.540;8.364;2023-08-30T11:27:37;2.10;;;2.00;;
12519;SDS011;6325;49.540;8.364;2023-08-30T11:30:05;5.32;;;4.78;;
12519;SDS011;6325;49.540;8.364;2023-08-30T11:32:34;6.13;;;5.03;;
12519;SDS011;6325;49.540;8.364;2023-08-30T11:35:02;3.30;;;3.00;;
12519;SDS011;6325;49.540;8.364;2023-08-30T11:37:29;2.55;;;2.35;;
12519;SDS011;6325;49.540;8.364;2023-08-30T11:39:57;1.70;;;1.70;;
12519;SDS011;6325;49.540;8.364;2023-08-30T11:42:24;1.70;;;1.60;;
12519;SDS011;6325;49.540;8.364;2023-08-30T11:44:52;1.80;;;1.70;;
12519;SDS011;6325;49.540;8.364;2023-08-30T11:47:19;1.45;;;1.45;;
12519;SDS011;6325;49.540;8.364;2023-08-30T11:49:48;1.63;;;1.63;;
12519;SDS011;6325;49.540;8.364;2023-08-30T11:52:16;1.40;;;1.40;;
12519;SDS011;6325;49.540;8.364;2023-08-30T11:54:45;1.70;;;1.70;;
12519;SDS011;6325;49.540;8.364;2023-08-30T11:57:13;1.40;;;1.40;;
12519;SDS011;6325;49.540;8.364;2023-08-30T11:59:40;1.42;;;1.42;;
12519;SDS011;6325;49.540;8.364;2023-08-30T12:02:07;1.85;;;1.75;;
12519;SDS011;6325;49.540;8.364;2023-08-30T12:04:39;1.50;;;1.50;;
12519;SDS011;6325;49.540;8.364;2023-08-30T12:07:08;1.50;;;1.50;;
12519;SDS011;6325;49.540;8.364;2023-08-30T12:09:36;2.50;;;2.30;;
12519;SDS011;6325;49.540;8.364;2023-08-30T12:12:06;1.67;;;1.58;;
12519;SDS011;6325;49.540;8.364;2023-08-30T12:14:33;4.63;;;4.13;;
12519;SDS011;6325;49.540;8.364;2023-08-30T12:17:00;6.63;;;4.80;;
12519;SDS011;6325;49.540;8.364;2023-08-30T12:19:28;2.60;;;2.40;;
12519;SDS011;6325;49.540;8.364;2023-08-30T12:21:56;3.40;;;3.10;;
12519;SDS011;6325;49.540;8.364;2023-08-30T12:24:24;2.80;;;2.60;;
12519;SDS011;6325;49.540;8.364;2023-08-30T12:26:51;1.90;;;1.80;;
12519;SDS011;6325;49.540;8.364;2023-08-30T12:29:18;1.90;;;1.80;;
12519;SDS011;6325;49.540;8.364;2023-08-30T12:31:45;2.20;;;2.10;;
12519;SDS011;6325;49.540;8.364;2023-08-30T12:34:13;3.30;;;2.95;;
12519;SDS011;6325;49.540;8.364;2023-08-30T12:36:40;2.93;;;2.73;;
12519;SDS011;6325;49.540;8.364;2023-08-30T12:39:07;1.80;;;1.70;;
12519;SDS011;6325;49.540;8.364;2023-08-30T12:41:36;2.40;;;2.20;;
12519;SDS011;6325;49.540;8.364;2023-08-30T12:44:04;1.92;;;1.83;;
12519;SDS011;6325;49.540;8.364;2023-08-30T12:46:31;1.33;;;1.23;;
12519;SDS011;6325;49.540;8.364;2023-08-30T12:48:58;1.10;;;1.10;;
12519;SDS011;6325;49.540;8.364;2023-08-30T12:51:25;1.45;;;1.35;;
12519;SDS011;6325;49.540;8.364;2023-08-30T12:53:54;1.37;;;1.27;;
12519;SDS011;6325;49.540;8.364;2023-08-30T12:56:21;1.52;;;1.50;;
12519;SDS011;6325;49.540;8.364;2023-08-30T12:58:49;2.63;;;2.42;;
12519;SDS011;6325;49.540;8.364;2023-08-30T13:01:17;1.67;;;1.40;;
12519;SDS011;6325;49.540;8.364;2023-08-30T13:03:44;2.25;;;2.08;;
12519;SDS011;6325;49.540;8.364;2023-08-30T13:06:11;1.83;;;1.73;;
12519;SDS011;6325;49.540;8.364;2023-08-30T13:08:38;2.65;;;2.45;;
12519;SDS011;6325;49.540;8.364;2023-08-30T13:11:06;1.50;;;1.40;;
12519;SDS011;6325;49.540;8.364;2023-08-30T13:13:33;1.27;;;1.20;;
12519;SDS011;6325;49.540;8.364;2023-08-30T13:16:01;1.70;;;1.60;;
12519;SDS011;6325;49.540;8.364;2023-08-30T13:18:28;2.20;;;1.88;;
12519;SDS011;6325;49.540;8.364;2023-08-30T13:20:56;2.70;;;2.47;;
12519;SDS011;6325;49.540;8.364;2023-08-30T13:23:23;3.33;;;2.90;;
12519;SDS011;6325;49.540;8.364;2023-08-30T13:25:50;2.00;;;1.90;;
12519;SDS011;6325;49.540;8.364;2023-08-30T13:28:17;2.40;;;2.30;;
12519;SDS011;6325;49.540;8.364;2023-08-30T13:30:44;2.25;;;2.03;;
12519;SDS011;6325;49.540;8.364;2023-08-30T13:33:13;3.00;;;2.70;;
12519;SDS011;6325;49.540;8.364;2023-08-30T13:35:40;1.45;;;1.35;;
12519;SDS011;6325;49.540;8.364;2023-08-30T13:38:07;2.17;;;2.05;;
12519;SDS011;6325;49.540;8.364;2023-08-30T13:40:34;1.70;;;1.60;;
12519;SDS011;6325;49.540;8.364;2023-08-30T13:43:02;3.60;;;3.25;;
12519;SDS011;6325;49.540;8.364;2023-08-30T13:45:29;2.20;;;2.10;;
12519;SDS011;6325;49.540;8.364;2023-08-30T13:47:56;1.60;;;1.50;;
12519;SDS011;6325;49.540;8.364;2023-08-30T13:50:25;1.75;;;1.65;;
12519;SDS011;6325;49.540;8.364;2023-08-30T13:52:55;3.57;;;3.27;;
12519;SDS011;6325;49.540;8.364;2023-08-30T13:55:22;2.60;;;2.40;;
12519;SDS011;6325;49.540;8.364;2023-08-30T13:57:49;2.70;;;2.50;;
12519;SDS011;6325;49.540;8.364;2023-08-30T14:00:17;3.17;;;2.80;;
12519;SDS011;6325;49.540;8.364;2023-08-30T14:02:44;3.95;;;3.47;;
12519;SDS011;6325;49.540;8.364;2023-08-30T14:05:11;4.85;;;3.55;;
12519;SDS011;6325;49.540;8.364;2023-08-30T14:07:40;3.75;;;3.25;;
12519;SDS011;6325;49.540;8.364;2023-08-30T14:10:07;2.70;;;2.50;;
12519;SDS011;6325;49.540;8.364;2023-08-30T14:12:36;4.00;;;3.40;;
12519;SDS011;6325;49.540;8.364;2023-08-30T14:15:03;3.15;;;2.85;;
12519;SDS011;6325;49.540;8.364;2023-08-30T14:17:31;2.72;;;2.53;;
12519;SDS011;6325;49.540;8.364;2023-08-30T14:19:58;4.15;;;3.30;;
12519;SDS011;6325;49.540;8.364;2023-08-30T14:22:26;3.38;;;3.03;;
12519;SDS011;6325;49.540;8.364;2023-08-30T14:24:54;1.80;;;1.70;;
12519;SDS011;6325;49.540;8.364;2023-08-30T14:27:21;2.30;;;2.10;;
12519;SDS011;6325;49.540;8.364;2023-08-30T14:29:49;2.95;;;2.75;;
12519;SDS011;6325;49.540;8.364;2023-08-30T14:32:16;1.95;;;1.85;;
12519;SDS011;6325;49.540;8.364;2023-08-30T14:34:43;2.10;;;2.00;;
12519;SDS011;6325;49.540;8.364;2023-08-30T14:37:10;1.85;;;1.75;;
12519;SDS011;6325;49.540;8.364;2023-08-30T14:39:37;1.60;;;1.50;;
12519;SDS011;6325;49.540;8.364;2023-08-30T14:42:05;2.33;;;2.13;;
12519;SDS011;6325;49.540;8.364;2023-08-30T14:44:33;1.90;;;1.80;;
12519;SDS011;6325;49.540;8.364;2023-08-30T14:47:00;2.33;;;2.17;;
12519;SDS011;6325;49.540;8.364;2023-08-30T14:49:27;2.05;;;1.80;;
12519;SDS011;6325;49.540;8.364;2023-08-30T14:51:54;2.60;;;2.40;;
12519;SDS011;6325;49.540;8.364;2023-08-30T14:54:21;2.60;;;2.40;;
12519;SDS011;6325;49.540;8.364;2023-08-30T14:56:49;2.70;;;2.40;;
12519;SDS011;6325;49.540;8.364;2023-08-30T14:59:17;1.88;;;1.77;;
12519;SDS011;6325;49.540;8.364;2023-08-30T15:01:45;1.58;;;1.50;;
12519;SDS011;6325;49.540;8.364;2023-08-30T15:04:12;2.25;;;2.10;;